Time;durP1;ratioP1;P1;durP2;ratioP2;P2;SDS_P1;SDS_P2;PMS_P1;PMS_P2;Temp;Humidity;BMP_temperature;BMP_pressure;BME280_temperature;BME280_humidity;BME280_pressure;Samples;Min_cycle;Max_cycle;Signal;HPM_P1;HPM_P2
2022/08/21 00:00:22;;;;;;;11.28;4.42;;;;;;;22.31;62.51;99695.20;1407776;92;21437;-80
2022/08/21 00:02:57;;;;;;;10.13;3.62;;;;;;;22.28;63.03;99698.39;1442072;89;21649;-79
2022/08/21 00:05:25;;;;;;;10.82;4.62;;;;;;;22.26;63.26;99694.56;1445074;89;21442;-79
2022/08/21 00:07:52;;;;;;;7.75;3.52;;;;;;;22.27;63.39;99693.53;1436731;88;21434;-80
2022/08/21 00:10:19;;;;;;;7.87;4.00;;;;;;;22.26;63.44;99696.45;1443317;89;22337;-80
2022/08/21 00:12:46;;;;;;;11.73;4.28;;;;;;;22.21;63.72;99697.70;1389058;92;21607;-83
2022/08/21 00:15:17;;;;;;;12.58;4.20;;;;;;;22.20;64.06;99702.81;1451919;88;21433;-83
2022/08/21 00:17:44;;;;;;;11.48;4.58;;;;;;;22.15;64.20;99702.14;1438050;89;21449;-82
2022/08/21 00:20:13;;;;;;;9.45;4.50;;;;;;;22.13;64.33;99704.28;1447930;89;23257;-82
2022/08/21 00:22:39;;;;;;;10.40;3.90;;;;;;;22.12;64.85;99699.13;1458038;89;21459;-81
2022/08/21 00:25:08;;;;;;;14.35;4.78;;;;;;;22.09;65.47;99695.03;1443746;90;23582;-79
2022/08/21 00:27:34;;;;;;;12.07;4.28;;;;;;;22.09;65.58;99698.53;1437031;89;21634;-80
2022/08/21 00:30:01;;;;;;;14.30;6.17;;;;;;;22.11;65.24;99698.31;1421675;91;21739;-81
2022/08/21 00:32:28;;;;;;;12.55;5.40;;;;;;;22.11;65.55;99703.70;1435786;89;22286;-82
2022/08/21 00:34:55;;;;;;;10.88;4.60;;;;;;;22.09;65.32;99703.92;1456809;89;21471;-80
2022/08/21 00:37:21;;;;;;;14.53;5.37;;;;;;;22.04;65.87;99703.05;1451892;89;21427;-81
2022/08/21 00:39:48;;;;;;;9.23;4.70;;;;;;;21.97;66.35;99701.00;1448164;89;21627;-81
2022/08/21 00:42:15;;;;;;;9.03;5.17;;;;;;;21.92;66.79;99696.86;1446449;89;21597;-82
2022/08/21 00:44:45;;;;;;;7.00;4.10;;;;;;;21.88;67.04;99701.09;1452409;89;21567;-82
2022/08/21 00:47:11;;;;;;;25.13;7.07;;;;;;;21.87;67.28;99693.55;1445312;89;21456;-80
2022/08/21 00:49:39;;;;;;;14.75;4.75;;;;;;;21.84;67.23;99701.58;1441491;89;22696;-80
2022/08/21 00:52:10;;;;;;;11.38;5.75;;;;;;;21.81;66.89;99698.55;1440193;89;23395;-82
2022/08/21 00:54:38;;;;;;;16.37;5.58;;;;;;;21.77;67.17;99693.34;1385956;91;21573;-82
2022/08/21 00:57:13;;;;;;;14.87;5.22;;;;;;;21.72;67.50;99689.19;1454434;89;21429;-82
2022/08/21 00:59:42;;;;;;;12.10;4.00;;;;;;;21.66;67.40;99686.92;1427357;91;21596;-81
2022/08/21 01:02:10;;;;;;;10.78;3.92;;;;;;;21.61;67.81;99683.61;1451683;89;22344;-81
2022/08/21 01:04:36;;;;;;;13.38;5.17;;;;;;;21.56;68.14;99680.00;1435402;88;21560;-79
2022/08/21 01:07:04;;;;;;;10.95;5.17;;;;;;;21.51;68.81;99677.19;1440304;89;21449;-79
2022/08/21 01:09:30;;;;;;;8.30;4.42;;;;;;;21.52;68.42;99679.66;1399128;92;22516;-78
2022/08/21 01:11:56;;;;;;;12.60;4.70;;;;;;;21.51;68.33;99682.05;1439354;90;21369;-79
2022/08/21 01:14:23;;;;;;;14.23;6.05;;;;;;;21.48;68.25;99671.75;1434601;89;22002;-79
2022/08/21 01:16:52;;;;;;;10.75;4.58;;;;;;;21.43;69.08;99666.25;1449504;89;21332;-79
2022/08/21 01:19:22;;;;;;;11.68;4.28;;;;;;;21.36;68.64;99658.31;1433868;89;21368;-82
2022/08/21 01:21:49;;;;;;;12.37;4.50;;;;;;;21.33;69.24;99664.14;1442277;90;22439;-81
2022/08/21 01:24:15;;;;;;;14.55;4.25;;;;;;;21.29;69.26;99659.45;1402336;93;21496;-82
2022/08/21 01:26:43;;;;;;;12.58;5.42;;;;;;;21.28;69.77;99657.83;1447382;89;21552;-82
2022/08/21 01:29:36;;;;;;;8.90;4.67;;;;;;;21.28;69.39;99657.83;1445731;89;21380;-82
2022/08/21 01:32:10;;;;;;;11.78;4.90;;;;;;;21.27;69.46;99657.55;1440004;89;21413;-81
2022/08/21 01:34:40;;;;;;;13.78;6.33;;;;;;;21.26;69.16;99659.94;1434149;89;21517;-82
2022/08/21 01:37:07;;;;;;;14.90;5.75;;;;;;;21.18;70.45;99659.79;1435832;89;21420;-81
2022/08/21 01:39:34;;;;;;;13.43;5.37;;;;;;;21.11;70.01;99666.62;1440982;89;21345;-80
2022/08/21 01:42:01;;;;;;;12.28;5.33;;;;;;;21.08;70.57;99668.97;1436974;89;21427;-80
2022/08/21 01:44:27;;;;;;;10.93;5.35;;;;;;;21.08;70.50;99664.40;1446115;88;21384;-81
2022/08/21 01:46:57;;;;;;;12.73;5.80;;;;;;;21.06;70.55;99655.77;1436522;89;21471;-80
2022/08/21 01:49:23;;;;;;;16.60;6.23;;;;;;;21.04;70.73;99653.02;1450126;89;22248;-81
2022/08/21 01:51:49;;;;;;;11.90;6.45;;;;;;;21.01;70.66;99646.77;1447424;89;21903;-80
2022/08/21 01:54:15;;;;;;;10.25;4.75;;;;;;;20.98;70.37;99650.73;1409410;92;21497;-79
2022/08/21 01:56:46;;;;;;;15.30;5.58;;;;;;;20.96;70.97;99667.63;1405198;92;21358;-79
2022/08/21 01:59:13;;;;;;;15.05;5.25;;;;;;;20.92;71.49;99671.31;1432408;90;21555;-79
2022/08/21 02:01:39;;;;;;;11.85;5.22;;;;;;;20.91;71.61;99674.23;1412351;91;21495;-80
2022/08/21 02:04:08;;;;;;;16.00;5.72;;;;;;;20.90;71.22;99668.03;1423871;91;22502;-81
2022/08/21 02:06:35;;;;;;;9.90;5.37;;;;;;;20.89;71.37;99670.45;1432189;91;21561;-80
2022/08/21 02:09:05;;;;;;;15.15;5.72;;;;;;;20.89;71.38;99676.36;1422769;91;21465;-79
2022/08/21 02:11:34;;;;;;;14.33;6.87;;;;;;;20.86;71.27;99670.06;1425352;91;21457;-80
2022/08/21 02:14:00;;;;;;;14.58;6.53;;;;;;;20.84;71.40;99672.19;1427849;91;21613;-80
2022/08/21 02:16:28;;;;;;;14.00;5.70;;;;;;;20.84;71.84;99676.23;1408092;92;21548;-82
2022/08/21 02:18:54;;;;;;;13.75;6.05;;;;;;;20.82;72.09;99672.94;1419685;91;21481;-80
2022/08/21 02:21:20;;;;;;;10.00;4.97;;;;;;;20.80;71.97;99670.50;1436517;91;21590;-80
2022/08/21 02:23:46;;;;;;;15.83;6.47;;;;;;;20.80;71.87;99668.31;1437202;91;21516;-80
2022/08/21 02:26:13;;;;;;;12.98;6.40;;;;;;;20.78;71.82;99670.44;1415180;92;21554;-81
2022/08/21 02:28:40;;;;;;;12.88;5.55;;;;;;;20.73;72.29;99661.19;1416876;92;21546;-80
2022/08/21 02:31:07;;;;;;;10.93;5.40;;;;;;;20.71;72.39;99660.62;1409393;92;21510;-80
2022/08/21 02:33:33;;;;;;;23.42;6.97;;;;;;;20.71;72.66;99659.27;1407533;92;21820;-81
2022/08/21 02:36:00;;;;;;;14.15;6.20;;;;;;;20.70;72.86;99661.65;1411437;91;22289;-81
2022/08/21 02:38:32;;;;;;;11.60;6.08;;;;;;;20.71;73.26;99658.43;1426954;91;21354;-80
2022/08/21 02:40:59;;;;;;;11.05;5.75;;;;;;;20.69;73.35;99654.64;1443055;91;21354;-80
2022/08/21 02:43:27;;;;;;;11.00;5.58;;;;;;;20.68;72.67;99654.33;1428016;91;21561;-80
2022/08/21 02:45:57;;;;;;;13.05;6.12;;;;;;;20.67;72.87;99647.33;1439812;91;21583;-81
2022/08/21 02:48:28;;;;;;;16.82;6.53;;;;;;;20.68;72.57;99646.27;1431744;91;21549;-80
2022/08/21 02:51:08;;;;;;;14.18;5.37;;;;;;;20.66;72.96;99639.52;1421984;91;22594;-80
2022/08/21 02:53:35;;;;;;;11.90;5.08;;;;;;;20.64;73.27;99632.20;1421527;91;21435;-79
2022/08/21 02:56:05;;;;;;;20.37;6.22;;;;;;;20.61;73.44;99628.10;1417622;91;22036;-80
2022/08/21 02:58:36;;;;;;;15.83;6.33;;;;;;;20.62;73.62;99618.97;1411540;92;21540;-79
2022/08/21 03:01:04;;;;;;;17.00;6.05;;;;;;;20.60;73.63;99629.16;1409587;91;21377;-80
2022/08/21 03:03:30;;;;;;;13.38;6.37;;;;;;;20.60;73.50;99633.20;1413077;91;21384;-79
2022/08/21 03:05:57;;;;;;;11.65;7.85;;;;;;;20.62;73.37;99633.77;1412377;92;21487;-79
2022/08/21 03:08:23;;;;;;;10.30;5.72;;;;;;;20.64;73.73;99631.66;1419094;91;22247;-81
2022/08/21 03:10:52;;;;;;;10.48;5.10;;;;;;;20.66;73.69;99628.23;1431073;91;21626;-82
2022/08/21 03:13:20;;;;;;;13.32;5.58;;;;;;;20.67;73.79;99637.92;1430091;91;22573;-82
2022/08/21 03:15:48;;;;;;;12.55;5.33;;;;;;;20.68;73.75;99639.55;1407662;91;22530;-81
2022/08/21 03:18:15;;;;;;;11.63;5.12;;;;;;;20.68;73.51;99640.89;1406450;91;21575;-80
2022/08/21 03:20:44;;;;;;;16.42;5.33;;;;;;;20.67;73.80;99641.95;1413680;92;22392;-80
2022/08/21 03:23:11;;;;;;;12.13;5.60;;;;;;;20.61;74.24;99637.51;1415376;92;21532;-81
2022/08/21 03:25:38;;;;;;;9.78;5.17;;;;;;;20.57;74.01;99632.31;1392242;92;22470;-81
2022/08/21 03:28:09;;;;;;;15.55;5.47;;;;;;;20.57;74.25;99637.70;1416181;92;21369;-78
2022/08/21 03:30:36;;;;;;;14.93;5.85;;;;;;;20.57;74.10;99642.23;1429798;91;21397;-80
2022/08/21 03:33:02;;;;;;;18.45;7.28;;;;;;;20.56;74.08;99653.51;1423948;91;21550;-80
2022/08/21 03:35:29;;;;;;;21.57;6.85;;;;;;;20.54;73.92;99654.26;1433902;91;22577;-80
2022/08/21 03:37:56;;;;;;;16.85;6.03;;;;;;;20.53;74.39;99658.53;1418099;91;21614;-80
2022/08/21 03:40:24;;;;;;;15.60;6.75;;;;;;;20.51;74.52;99658.72;1430423;91;23235;-80
2022/08/21 03:42:51;;;;;;;14.87;5.62;;;;;;;20.53;74.75;99663.38;1420457;91;21495;-80
2022/08/21 03:45:19;;;;;;;13.68;4.92;;;;;;;20.54;75.04;99674.95;1414157;92;21509;-80
2022/08/21 03:48:02;;;;;;;12.05;6.15;;;;;;;20.53;74.59;99666.07;1408517;92;21438;-79
2022/08/21 03:50:32;;;;;;;16.15;6.37;;;;;;;20.54;74.43;99673.07;1412839;92;22353;-80
2022/08/21 03:52:59;;;;;;;17.52;6.95;;;;;;;20.55;74.16;99681.45;1414113;92;21421;-80
2022/08/21 03:55:26;;;;;;;14.60;6.42;;;;;;;20.56;74.55;99677.70;1432521;91;21494;-81
2022/08/21 03:57:52;;;;;;;15.10;5.92;;;;;;;20.57;75.48;99678.02;1407574;91;22759;-80
2022/08/21 04:00:20;;;;;;;13.68;5.20;;;;;;;20.59;74.60;99673.20;1410152;92;21369;-80
2022/08/21 04:02:47;;;;;;;15.53;5.75;;;;;;;20.60;74.81;99673.52;1415356;92;21421;-80
2022/08/21 04:05:26;;;;;;;9.15;5.55;;;;;;;20.63;75.00;99675.74;1394675;92;21412;-81
2022/08/21 04:07:43;;;;;;;10.43;7.00;;;;;;;20.64;74.91;99676.02;1425776;91;22525;-81
2022/08/21 04:10:09;;;;;;;17.25;7.00;;;;;;;20.65;74.79;99681.69;1431319;91;21513;-80
2022/08/21 04:12:35;;;;;;;16.55;5.42;;;;;;;20.62;75.72;99688.87;1416087;91;21428;-80
2022/08/21 04:15:01;;;;;;;14.98;5.28;;;;;;;20.61;75.62;99681.86;1388746;92;21568;-80
2022/08/21 04:17:28;;;;;;;11.43;5.83;;;;;;;20.60;75.89;99682.92;1409355;91;21473;-79
2022/08/21 04:19:54;;;;;;;11.73;5.05;;;;;;;20.64;75.78;99680.05;1413769;91;21451;-79
2022/08/21 04:22:20;;;;;;;11.40;5.55;;;;;;;20.68;75.58;99689.28;1443705;91;22050;-80
2022/08/21 04:24:46;;;;;;;11.08;5.47;;;;;;;20.73;75.30;99693.45;1421388;90;21414;-80
2022/08/21 04:27:12;;;;;;;15.40;6.62;;;;;;;20.75;75.24;99687.85;1423411;91;21435;-80
2022/08/21 04:29:38;;;;;;;11.43;6.15;;;;;;;20.77;75.17;99687.60;1437849;91;21509;-79
2022/08/21 04:32:04;;;;;;;16.75;6.20;;;;;;;20.81;75.19;99681.55;1425674;91;22080;-79
2022/08/21 04:34:30;;;;;;;14.73;5.80;;;;;;;20.88;75.22;99692.17;1412608;91;22359;-80
2022/08/21 04:36:56;;;;;;;18.10;6.35;;;;;;;20.92;75.36;99696.87;1422350;91;21353;-79
2022/08/21 04:39:22;;;;;;;16.20;6.70;;;;;;;20.98;75.07;99703.19;1428612;90;21406;-79
2022/08/21 04:41:49;;;;;;;17.85;6.25;;;;;;;21.02;74.75;99705.69;1438644;91;21398;-79
2022/08/21 04:44:15;;;;;;;18.95;7.35;;;;;;;21.05;74.56;99705.22;1429472;91;21324;-79
2022/08/21 04:46:41;;;;;;;21.73;7.75;;;;;;;21.06;74.38;99702.84;1429680;91;21465;-79
2022/08/21 04:49:07;;;;;;;13.90;6.87;;;;;;;21.07;74.24;99715.23;1436525;91;21458;-79
2022/08/21 04:51:37;;;;;;;18.02;6.20;;;;;;;21.04;74.93;99712.20;1436298;91;21509;-79
2022/08/21 04:54:12;;;;;;;13.98;6.53;;;;;;;21.06;74.78;99718.14;1417178;91;21413;-79
2022/08/21 04:56:49;;;;;;;14.68;5.80;;;;;;;21.08;74.59;99720.89;1431193;91;22286;-79
2022/08/21 04:59:20;;;;;;;14.47;6.17;;;;;;;21.08;74.41;99716.86;1421779;91;21561;-79
2022/08/21 05:01:46;;;;;;;33.65;9.43;;;;;;;21.12;74.08;99719.92;1423285;91;21568;-79
2022/08/21 05:04:17;;;;;;;16.00;6.42;;;;;;;21.12;73.96;99723.42;1435449;91;21642;-78
2022/08/21 05:06:46;;;;;;;20.48;6.72;;;;;;;21.11;74.13;99729.84;1437680;91;22694;-79
2022/08/21 05:09:16;;;;;;;16.97;7.00;;;;;;;21.12;74.34;99730.69;1424741;91;21540;-79
2022/08/21 05:11:43;;;;;;;14.07;7.03;;;;;;;21.10;74.49;99730.09;1430420;91;21581;-79
2022/08/21 05:14:11;;;;;;;17.20;7.25;;;;;;;21.09;74.52;99729.28;1430928;90;21458;-80
2022/08/21 05:16:38;;;;;;;20.43;8.05;;;;;;;21.11;74.44;99730.38;1417585;91;21561;-80
2022/08/21 05:19:06;;;;;;;13.58;7.03;;;;;;;21.07;74.38;99720.61;1424320;91;22458;-83
2022/08/21 05:21:39;;;;;;;18.05;7.00;;;;;;;21.10;74.45;99729.56;1422187;91;21457;-80
2022/08/21 05:24:05;;;;;;;21.65;6.75;;;;;;;21.12;75.18;99727.99;1412409;92;22496;-79
2022/08/21 05:26:32;;;;;;;17.20;7.03;;;;;;;21.16;75.07;99734.00;1423526;91;22345;-78
2022/08/21 05:28:58;;;;;;;13.48;7.60;;;;;;;21.23;75.15;99734.41;1416502;91;21368;-78
2022/08/21 05:31:24;;;;;;;22.07;6.45;;;;;;;21.31;75.21;99734.06;1416487;91;21458;-80
2022/08/21 05:33:50;;;;;;;17.82;7.37;;;;;;;21.44;74.87;99734.39;1395088;91;22425;-92
2022/08/21 05:36:18;;;;;;;15.63;7.85;;;;;;;21.57;74.39;99735.47;1418599;91;21341;-88
2022/08/21 05:38:44;;;;;;;20.82;9.38;;;;;;;21.69;74.03;99740.83;1421690;91;21524;-93
2022/08/21 05:41:10;;;;;;;17.00;7.28;;;;;;;21.74;74.55;99741.76;1415914;91;21363;-90
2022/08/21 05:43:37;;;;;;;24.60;8.90;;;;;;;21.82;73.46;99745.97;1426503;91;21400;-90
2022/08/21 05:46:05;;;;;;;13.62;7.10;;;;;;;21.87;73.74;99743.38;1435855;91;21413;-85
2022/08/21 05:48:32;;;;;;;17.82;8.15;;;;;;;21.95;73.77;99745.70;1427595;90;21369;-86
2022/08/21 05:51:08;;;;;;;10.35;6.17;;;;;;;22.07;73.53;99751.88;1426302;91;21369;-86
2022/08/21 05:53:35;;;;;;;14.13;9.30;;;;;;;22.18;73.06;99746.19;1426864;90;21536;-85
2022/08/21 05:56:03;;;;;;;14.78;8.28;;;;;;;22.31;72.60;99739.67;1425212;91;21295;-86
2022/08/21 05:58:33;;;;;;;20.77;8.45;;;;;;;22.40;72.19;99729.33;1412615;91;21377;-89
2022/08/21 06:01:00;;;;;;;21.50;8.57;;;;;;;22.48;72.07;99733.80;1406706;91;22338;-85
2022/08/21 06:03:32;;;;;;;14.68;7.78;;;;;;;22.52;71.79;99736.27;1411298;91;22127;-91
2022/08/21 06:05:58;;;;;;;19.73;8.68;;;;;;;22.55;71.60;99730.12;1421867;91;21457;-85
2022/08/21 06:08:26;;;;;;;20.60;8.00;;;;;;;22.70;71.39;99719.08;1416522;92;21415;-86
2022/08/21 06:10:54;;;;;;;20.08;7.65;;;;;;;22.86;71.12;99714.73;1434143;91;22028;-91
2022/08/21 06:13:21;;;;;;;12.35;8.00;;;;;;;22.86;71.12;99714.73;1423754;91;21421;-93
2022/08/21 06:15:48;;;;;;;11.55;7.67;;;;;;;23.03;70.70;99720.16;1419951;91;21465;-91
2022/08/21 06:18:14;;;;;;;12.28;6.90;;;;;;;23.13;70.07;99719.48;1422015;91;21391;-92
2022/08/21 06:20:41;;;;;;;20.10;8.18;;;;;;;23.21;69.52;99719.06;1441111;90;22264;-92
2022/08/21 06:23:10;;;;;;;24.60;8.90;;;;;;;23.29;69.36;99717.84;1416552;90;21369;-92
2022/08/21 06:25:36;;;;;;;21.73;9.00;;;;;;;23.32;68.85;99714.09;1423804;91;22324;-91
2022/08/21 06:28:10;;;;;;;13.15;7.45;;;;;;;23.42;68.75;99718.84;1407011;91;21451;-94
2022/08/21 06:30:38;;;;;;;14.38;6.33;;;;;;;23.55;68.37;99717.64;1415145;91;21377;-87
2022/08/21 06:33:08;;;;;;;23.50;8.50;;;;;;;23.69;68.02;99718.09;1417850;91;21347;-90
2022/08/21 06:35:35;;;;;;;16.95;8.00;;;;;;;23.78;67.74;99717.42;1412328;90;21370;-90
2022/08/21 06:38:02;;;;;;;16.48;7.17;;;;;;;23.73;67.31;99710.60;1414162;90;22613;-95
2022/08/21 06:40:29;;;;;;;16.60;7.60;;;;;;;23.69;67.05;99700.54;1445892;91;21369;-93
2022/08/21 06:42:55;;;;;;;16.57;7.15;;;;;;;23.72;67.17;99698.72;1395679;91;21451;-82
2022/08/21 06:45:22;;;;;;;16.62;7.35;;;;;;;23.74;66.62;99696.05;1424213;92;21753;-94
2022/08/21 06:50:32;;;;;;;18.40;6.53;;;;;;;23.75;65.93;99694.97;1451781;84;21672;-86
2022/08/21 06:53:09;;;;;;;22.10;8.25;;;;;;;23.74;65.77;99699.29;1428480;87;21779;-86
2022/08/21 06:55:38;;;;;;;16.10;6.42;;;;;;;23.80;66.11;99695.03;1502683;87;21221;-88
2022/08/21 06:58:06;;;;;;;10.78;6.03;;;;;;;23.85;65.97;99694.26;1484583;86;22513;-88
2022/08/21 07:00:54;;;;;;;19.12;6.12;;;;;;;23.86;65.85;99691.32;1487330;87;21375;-83
2022/08/21 07:03:24;;;;;;;15.83;6.75;;;;;;;23.86;65.32;99700.78;1485996;87;21361;-88
2022/08/21 07:05:52;;;;;;;11.78;6.05;;;;;;;23.93;64.95;99714.62;1478066;87;21397;-88
2022/08/21 07:08:18;;;;;;;15.08;7.17;;;;;;;23.90;64.65;99707.02;1464156;87;21395;-86
2022/08/21 07:10:44;;;;;;;13.32;6.65;;;;;;;23.95;64.75;99712.49;1472271;87;21433;-88
2022/08/21 07:13:10;;;;;;;13.72;6.00;;;;;;;23.93;64.68;99710.03;1481294;87;21375;-86
2022/08/21 07:15:37;;;;;;;15.32;6.83;;;;;;;24.00;64.66;99716.61;1484528;87;22144;-86
2022/08/21 07:18:03;;;;;;;17.00;6.40;;;;;;;24.02;64.45;99719.86;1488238;87;21506;-87
2022/08/21 07:20:31;;;;;;;17.60;6.33;;;;;;;24.11;64.19;99723.77;1492773;86;21444;-87
2022/08/21 07:23:04;;;;;;;62.05;9.33;;;;;;;24.13;63.56;99722.14;1486736;87;21588;-87
2022/08/21 07:25:31;;;;;;;16.90;7.37;;;;;;;24.16;63.34;99717.04;1492445;87;21463;-86
2022/08/21 07:27:57;;;;;;;66.85;9.45;;;;;;;24.20;63.24;99716.83;1491766;87;22305;-87
2022/08/21 07:30:24;;;;;;;14.13;5.90;;;;;;;24.25;62.85;99714.16;1482511;87;21477;-85
2022/08/21 07:32:51;;;;;;;50.17;7.22;;;;;;;24.31;62.86;99711.81;1483246;87;21388;-88
2022/08/21 07:39:16;;;;;;;17.25;7.55;;;;;;;24.45;62.18;99714.11;1482762;87;21448;-88
2022/08/21 07:41:43;;;;;;;15.60;7.15;;;;;;;24.49;62.06;99717.95;1464583;87;22364;-89
2022/08/21 07:44:09;;;;;;;15.90;5.67;;;;;;;24.50;61.95;99716.87;1482653;87;22148;-88
2022/08/21 07:46:35;;;;;;;16.23;6.42;;;;;;;24.51;62.08;99717.14;1483137;87;21322;-88
2022/08/21 07:49:01;;;;;;;19.40;6.50;;;;;;;24.52;61.80;99720.14;1489595;86;21382;-88
2022/08/21 07:51:28;;;;;;;17.55;6.58;;;;;;;24.51;61.66;99722.55;1484722;87;21477;-88
2022/08/21 07:53:59;;;;;;;13.03;5.92;;;;;;;24.50;61.55;99723.63;1480212;87;21374;-89
2022/08/21 07:56:26;;;;;;;23.67;5.92;;;;;;;24.46;61.56;99717.11;1476137;88;22203;-89
2022/08/21 07:58:52;;;;;;;20.97;6.97;;;;;;;24.42;61.48;99718.65;1470127;88;21338;-89
2022/08/21 08:01:19;;;;;;;14.63;6.10;;;;;;;24.42;61.79;99718.65;1484444;87;22328;-88
2022/08/21 08:03:46;;;;;;;18.05;6.37;;;;;;;24.44;61.76;99717.90;1481641;87;21367;-88
2022/08/21 08:06:13;;;;;;;15.28;6.55;;;;;;;24.42;61.64;99719.46;1477367;88;21388;-90
2022/08/21 08:08:41;;;;;;;11.73;5.67;;;;;;;24.39;61.41;99712.41;1473335;87;21389;-88
2022/08/21 08:11:15;;;;;;;17.00;5.95;;;;;;;24.36;61.44;99710.21;1479695;87;22328;-88
2022/08/21 08:13:48;;;;;;;14.50;6.12;;;;;;;24.37;61.68;99711.83;1473518;88;21449;-89
2022/08/21 08:16:15;;;;;;;14.73;6.80;;;;;;;24.32;61.68;99712.62;1476080;88;21367;-88
2022/08/21 08:18:42;;;;;;;12.60;5.75;;;;;;;24.27;61.89;99712.56;1471909;88;21375;-89
2022/08/21 08:21:10;;;;;;;21.27;5.90;;;;;;;24.22;61.76;99713.31;1480853;88;22313;-89
2022/08/21 08:23:37;;;;;;;16.55;5.75;;;;;;;24.13;61.93;99713.49;1458963;88;21381;-89
2022/08/21 08:26:04;;;;;;;18.10;6.22;;;;;;;24.08;62.25;99710.73;1483650;88;21337;-89
2022/08/21 08:28:32;;;;;;;22.07;5.60;;;;;;;24.04;62.24;99712.32;1486211;87;21338;-87
2022/08/21 08:31:00;;;;;;;14.07;5.50;;;;;;;24.01;62.31;99712.83;1470533;88;21513;-89
2022/08/21 08:33:27;;;;;;;18.77;5.92;;;;;;;23.99;63.19;99718.47;1486806;88;21288;-88
2022/08/21 08:35:54;;;;;;;23.70;6.25;;;;;;;23.98;63.66;99716.85;1479290;88;21278;-89
2022/08/21 08:38:24;;;;;;;18.92;6.05;;;;;;;24.01;63.61;99716.34;1482760;88;21389;-88
2022/08/21 08:41:17;;;;;;;13.20;5.67;;;;;;;24.01;63.80;99711.48;1477988;88;21448;-88
2022/08/21 08:43:51;;;;;;;17.57;6.25;;;;;;;24.00;63.72;99713.91;1485855;87;21371;-88
2022/08/21 08:46:38;;;;;;;16.40;6.22;;;;;;;23.97;63.62;99715.77;1467514;89;22300;-89
2022/08/21 08:49:31;;;;;;;22.27;7.65;;;;;;;23.94;63.65;99720.30;1464442;88;21464;-89
2022/08/21 08:52:06;;;;;;;15.60;7.83;;;;;;;23.89;64.29;99719.73;1467737;88;22058;-89
2022/08/21 08:54:37;;;;;;;16.23;7.12;;;;;;;23.80;65.07;99730.70;1481870;88;21492;-84
2022/08/21 08:57:09;;;;;;;20.88;6.70;;;;;;;23.74;66.07;99735.22;1483911;87;22402;-83
2022/08/21 08:59:43;;;;;;;14.75;6.28;;;;;;;23.68;67.06;99732.14;1485905;87;21412;-83
2022/08/21 09:02:12;;;;;;;17.27;7.45;;;;;;;23.63;67.85;99730.72;1479644;87;22640;-83
2022/08/21 09:04:39;;;;;;;27.95;6.87;;;;;;;23.58;68.14;99736.05;1473014;88;21516;-84
2022/08/21 09:07:19;;;;;;;17.73;7.20;;;;;;;23.54;67.99;99735.73;1481496;88;21471;-83
2022/08/21 09:10:12;;;;;;;11.80;5.67;;;;;;;23.51;68.28;99739.48;1475246;87;21618;-83
2022/08/21 09:13:14;;;;;;;19.87;7.37;;;;;;;23.48;68.52;99752.09;1478432;88;21483;-83
2022/08/21 09:15:55;;;;;;;23.75;7.62;;;;;;;23.43;69.34;99747.47;1478646;87;21389;-83
2022/08/21 09:18:44;;;;;;;20.57;8.68;;;;;;;23.40;69.75;99752.83;1478267;88;22505;-83
2022/08/21 09:21:40;;;;;;;27.10;14.65;;;;;;;23.37;70.68;99755.21;1482276;87;22423;-84
2022/08/21 09:24:36;;;;;;;23.50;13.13;;;;;;;23.28;71.33;99756.70;1479381;88;21456;-83
2022/08/21 09:27:13;;;;;;;17.82;11.00;;;;;;;23.12;72.08;99757.80;1485891;87;22420;-83
2022/08/21 09:29:47;;;;;;;22.25;9.93;;;;;;;23.02;72.34;99766.27;1476005;87;21433;-83
2022/08/21 09:32:18;;;;;;;17.05;8.15;;;;;;;22.95;73.51;99771.30;1464211;88;21455;-83
2022/08/21 09:34:58;;;;;;;16.00;7.70;;;;;;;22.95;73.56;99773.98;1470645;88;21353;-83
2022/08/21 09:37:25;;;;;;;20.57;9.08;;;;;;;22.94;74.35;99772.87;1476591;88;21433;-83
2022/08/21 09:39:51;;;;;;;19.45;7.70;;;;;;;22.94;74.52;99785.83;1484274;88;21418;-84
2022/08/21 09:42:30;;;;;;;19.00;8.68;;;;;;;22.93;75.13;99786.90;1482623;87;21367;-84
2022/08/21 09:45:17;;;;;;;15.07;8.67;;;;;;;22.96;76.06;99785.09;1467605;88;21420;-85
2022/08/21 09:47:45;;;;;;;20.50;8.80;;;;;;;22.93;75.55;99777.45;1433298;90;21472;-84
2022/08/21 09:50:17;;;;;;;17.30;7.75;;;;;;;22.90;75.71;99772.55;1432554;90;22359;-83
2022/08/21 09:52:54;;;;;;;20.75;8.63;;;;;;;22.88;76.44;99773.85;1444377;90;21293;-85
2022/08/21 09:58:43;;;;;;;;;;;;;;;22.77;76.79;99763.41;1445963;90;21412;-81
2022/08/21 10:01:17;;;;;;;11.57;7.17;;;;;;;22.72;76.45;99764.67;1432254;90;20838;-84
2022/08/21 10:03:44;;;;;;;16.52;8.15;;;;;;;22.70;76.60;99760.03;1451606;90;23549;-84
2022/08/21 10:06:26;;;;;;;18.37;7.58;;;;;;;22.69;77.01;99765.16;1439473;90;21413;-83
2022/08/21 10:09:07;;;;;;;21.62;9.03;;;;;;;22.70;76.84;99760.88;1446329;90;21561;-85
2022/08/21 10:11:34;;;;;;;18.37;8.00;;;;;;;22.70;76.98;99758.69;1413968;90;22348;-87
2022/08/21 10:14:36;;;;;;;16.87;8.80;;;;;;;22.66;78.08;99754.86;1443308;90;23626;-85
2022/08/21 10:17:20;;;;;;;20.23;7.87;;;;;;;22.64;78.24;99747.53;1440082;90;22087;-88
2022/08/21 10:20:24;;;;;;;16.80;8.50;;;;;;;22.57;78.33;99754.97;1424210;90;22357;-88
2022/08/21 10:23:33;;;;;;;17.07;8.25;;;;;;;22.55;78.78;99751.69;1472606;88;22545;-87
2022/08/21 10:26:10;;;;;;;14.75;8.68;;;;;;;22.47;78.83;99742.95;1478347;88;21528;-87
2022/08/21 10:28:51;;;;;;;14.53;6.95;;;;;;;22.31;78.59;99732.94;1480659;88;21565;-86
2022/08/21 10:31:50;;;;;;;19.37;7.60;;;;;;;22.32;78.84;99745.88;1445500;87;21515;-86
2022/08/21 10:35:01;;;;;;;16.73;7.75;;;;;;;22.24;79.44;99756.51;1484217;87;22397;-85
2022/08/21 10:37:38;;;;;;;17.80;7.95;;;;;;;22.17;80.73;99753.97;1437684;90;21471;-86
2022/08/21 10:40:31;;;;;;;13.45;7.47;;;;;;;22.17;80.73;99753.97;1443262;88;21355;-85
2022/08/21 10:43:29;;;;;;;19.95;7.90;;;;;;;22.16;81.05;99744.76;1493662;86;21492;-85
2022/08/21 10:46:25;;;;;;;30.45;9.38;;;;;;;22.22;81.78;99749.22;1480964;87;22109;-85
2022/08/21 10:48:58;;;;;;;21.75;7.33;;;;;;;22.16;81.95;99738.02;1475014;88;21362;-86
2022/08/21 10:51:30;;;;;;;27.07;9.50;;;;;;;22.16;81.95;99738.02;1479258;88;21322;-85
2022/08/21 10:54:19;;;;;;;17.80;8.60;;;;;;;22.26;82.54;99749.02;1483362;88;22439;-87
2022/08/21 10:56:49;;;;;;;20.35;8.33;;;;;;;22.28;83.29;99736.12;1479701;87;21463;-89
2022/08/21 10:59:46;;;;;;;26.60;10.60;;;;;;;22.29;83.46;99727.78;1468491;88;21448;-87
2022/08/21 11:02:23;;;;;;;18.82;10.63;;;;;;;22.37;83.17;99726.58;1470400;88;21611;-88
2022/08/21 11:05:01;;;;;;;14.35;8.18;;;;;;;22.45;84.13;99724.03;1449810;89;21584;-87
2022/08/21 11:07:48;;;;;;;23.95;9.80;;;;;;;22.49;83.97;99719.23;1480169;88;21351;-87
2022/08/21 11:10:32;;;;;;;15.95;7.83;;;;;;;22.56;84.08;99723.66;1438801;88;22365;-89
2022/08/21 11:13:07;;;;;;;19.07;7.30;;;;;;;22.65;83.91;99720.33;1450396;89;21479;-86
2022/08/21 11:15:50;;;;;;;16.57;8.05;;;;;;;22.59;84.21;99716.45;1467188;88;21456;-86
2022/08/21 11:18:33;;;;;;;14.60;7.10;;;;;;;22.60;84.41;99711.34;1481887;87;21496;-88
2022/08/21 11:21:11;;;;;;;16.48;7.40;;;;;;;22.67;83.70;99706.08;1481558;87;22292;-87
2022/08/21 11:23:54;;;;;;;21.20;7.10;;;;;;;22.71;82.89;99708.56;1477128;87;21414;-88
2022/08/21 11:26:32;;;;;;;17.50;7.55;;;;;;;22.80;82.41;99708.97;1472803;88;21465;-88
2022/08/21 11:29:31;;;;;;;19.92;7.25;;;;;;;22.84;82.79;99710.10;1486944;87;22269;-88
2022/08/21 11:32:31;;;;;;;16.82;9.48;;;;;;;22.95;82.75;99701.14;1472902;87;22264;-89
2022/08/21 11:35:08;;;;;;;15.75;8.33;;;;;;;22.97;83.48;99696.32;1478114;87;21316;-86
2022/08/21 11:38:00;;;;;;;24.07;9.50;;;;;;;22.84;82.32;99680.43;1490311;87;21590;-87
2022/08/21 11:41:07;;;;;;;14.95;8.78;;;;;;;22.95;82.55;99684.95;1471197;87;21280;-88
2022/08/21 11:43:44;;;;;;;17.60;8.63;;;;;;;23.09;82.26;99692.72;1454384;89;22562;-88
2022/08/21 11:46:27;;;;;;;16.77;7.10;;;;;;;23.19;81.31;99692.34;1462510;89;22642;-88
2022/08/21 11:49:20;;;;;;;12.58;6.90;;;;;;;23.32;79.98;99684.40;1473587;89;21243;-88
2022/08/21 11:52:24;;;;;;;17.42;6.40;;;;;;;23.37;80.07;99676.38;1450781;89;21479;-86
2022/08/21 11:55:04;;;;;;;14.60;6.65;;;;;;;23.54;79.41;99668.22;1461435;88;21489;-88
2022/08/21 11:58:09;;;;;;;11.35;7.05;;;;;;;23.72;78.09;99667.11;1476399;88;21452;-88